ASA291 KSAN-KSFO
Flight info
| Callsign | ASA291 |
|---|---|
| Flight time | N/A |
| Altitude | 38000 |
| Route | PADRZ2 IKAYE RIZIN SPLNT STOKD SERFR SERFR4 |
| Aircraft | B739/M-SDE2E3FGHIRWXY/LB1 |
Departure
| Time | 2026-04-20 00:45 |
|---|---|
| Airport | San Diego International Airport (KSAN) |
Arrival
| Time | N/A |
|---|---|
| Airport | San Francisco International Airport (KSFO) |
| Time | Latitude | Longitude | Altitude | Speed | Heading |
|---|---|---|---|---|---|
| 2026-04-20 00:15 | 32.73457 | -117.20341 | 22 ft | 0 kts | 232° |
| 2026-04-20 00:31 | 32.73461 | -117.20336 | 22 ft | 4 kts | 232° |
| 2026-04-20 00:32 | 32.73477 | -117.20312 | 22 ft | 2 kts | 232° |
| 2026-04-20 00:32 | 32.73492 | -117.20293 | 22 ft | 4 kts | 193° |
| 2026-04-20 00:32 | 32.73509 | -117.20300 | 22 ft | 4 kts | 116° |
| 2026-04-20 00:32 | 32.73517 | -117.20329 | 22 ft | 4 kts | 106° |
| 2026-04-20 00:33 | 32.73520 | -117.20342 | 22 ft | 0 kts | 106° |
| 2026-04-20 00:38 | 32.73514 | -117.20317 | 22 ft | 9 kts | 105° |
| 2026-04-20 00:38 | 32.73525 | -117.20241 | 24 ft | 10 kts | 70° |
| 2026-04-20 00:38 | 32.73541 | -117.20165 | 23 ft | 9 kts | 89° |
| 2026-04-20 00:38 | 32.73529 | -117.20090 | 24 ft | 9 kts | 104° |
| 2026-04-20 00:39 | 32.73510 | -117.20018 | 23 ft | 9 kts | 107° |
| 2026-04-20 00:39 | 32.73492 | -117.19948 | 23 ft | 9 kts | 107° |
| 2026-04-20 00:39 | 32.73475 | -117.19880 | 24 ft | 9 kts | 107° |
| 2026-04-20 00:39 | 32.73454 | -117.19800 | 23 ft | 16 kts | 107° |
| 2026-04-20 00:40 | 32.73419 | -117.19661 | 22 ft | 18 kts | 107° |
| 2026-04-20 00:40 | 32.73386 | -117.19524 | 24 ft | 17 kts | 105° |
| 2026-04-20 00:40 | 32.73355 | -117.19390 | 23 ft | 16 kts | 105° |
| 2026-04-20 00:40 | 32.73325 | -117.19262 | 22 ft | 16 kts | 105° |
| 2026-04-20 00:41 | 32.73294 | -117.19140 | 22 ft | 15 kts | 107° |
| 2026-04-20 00:41 | 32.73266 | -117.19022 | 23 ft | 15 kts | 105° |
| 2026-04-20 00:41 | 32.73239 | -117.18909 | 24 ft | 14 kts | 105° |
| 2026-04-20 00:41 | 32.73213 | -117.18800 | 24 ft | 14 kts | 105° |
| 2026-04-20 00:42 | 32.73178 | -117.18656 | 25 ft | 19 kts | 106° |
| 2026-04-20 00:42 | 32.73142 | -117.18509 | 24 ft | 18 kts | 106° |
| 2026-04-20 00:42 | 32.73108 | -117.18367 | 21 ft | 18 kts | 106° |
| 2026-04-20 00:42 | 32.73075 | -117.18231 | 23 ft | 17 kts | 106° |
| 2026-04-20 00:43 | 32.73043 | -117.18099 | 21 ft | 16 kts | 106° |
| 2026-04-20 00:43 | 32.73012 | -117.17972 | 21 ft | 16 kts | 106° |
| 2026-04-20 00:43 | 32.72981 | -117.17850 | 21 ft | 15 kts | 107° |
| 2026-04-20 00:43 | 32.72953 | -117.17693 | 21 ft | 24 kts | 88° |
| 2026-04-20 00:44 | 32.73035 | -117.17633 | 22 ft | 13 kts | 295° |
| 2026-04-20 00:44 | 32.73071 | -117.17741 | 21 ft | 25 kts | 284° |
| 2026-04-20 00:44 | 32.73192 | -117.18263 | 23 ft | 104 kts | 287° |
| 2026-04-20 00:44 | 32.73458 | -117.19335 | 64 ft | 160 kts | 287° |
| 2026-04-20 00:45 | 32.73812 | -117.20707 | 472 ft | 187 kts | 288° |
| 2026-04-20 00:45 | 32.74303 | -117.22269 | 808 ft | 213 kts | 298° |
| 2026-04-20 00:45 | 32.75130 | -117.23659 | 1862 ft | 201 kts | 304° |
| 2026-04-20 00:45 | 32.75975 | -117.25055 | 2384 ft | 222 kts | 304° |
| 2026-04-20 00:46 | 32.76937 | -117.26663 | 2647 ft | 254 kts | 304° |
| 2026-04-20 00:46 | 32.77973 | -117.28431 | 3339 ft | 265 kts | 303° |
| 2026-04-20 00:46 | 32.79030 | -117.30263 | 4194 ft | 271 kts | 303° |
| 2026-04-20 00:46 | 32.80112 | -117.32120 | 5090 ft | 276 kts | 304° |
| 2026-04-20 00:47 | 32.81278 | -117.33953 | 5980 ft | 280 kts | 306° |
| 2026-04-20 00:47 | 32.82479 | -117.35794 | 6829 ft | 284 kts | 306° |
| 2026-04-20 00:47 | 32.83701 | -117.37667 | 7655 ft | 289 kts | 306° |
| 2026-04-20 00:47 | 32.84937 | -117.39568 | 8448 ft | 294 kts | 306° |
| 2026-04-20 00:48 | 32.86190 | -117.41505 | 9248 ft | 297 kts | 306° |
| 2026-04-20 00:48 | 32.87457 | -117.43468 | 10049 ft | 301 kts | 306° |
| 2026-04-20 00:48 | 32.88762 | -117.45493 | 10510 ft | 320 kts | 306° |
| 2026-04-20 00:48 | 32.90166 | -117.47674 | 10706 ft | 344 kts | 306° |
| 2026-04-20 00:49 | 32.91653 | -117.49987 | 11166 ft | 357 kts | 306° |
| 2026-04-20 00:49 | 32.93174 | -117.52352 | 11856 ft | 362 kts | 306° |
| 2026-04-20 00:49 | 32.94712 | -117.54745 | 12605 ft | 365 kts | 306° |
| 2026-04-20 00:49 | 32.96258 | -117.57156 | 13341 ft | 368 kts | 306° |
| 2026-04-20 00:50 | 32.97822 | -117.59596 | 14064 ft | 372 kts | 306° |
| 2026-04-20 00:50 | 32.99398 | -117.62055 | 14717 ft | 375 kts | 306° |
| 2026-04-20 00:50 | 33.00982 | -117.64531 | 14938 ft | 375 kts | 306° |
| 2026-04-20 00:50 | 33.02567 | -117.67007 | 14968 ft | 376 kts | 306° |
| 2026-04-20 00:51 | 33.04136 | -117.69463 | 14979 ft | 378 kts | 306° |
| 2026-04-20 00:51 | 33.05744 | -117.71978 | 15266 ft | 385 kts | 306° |
| 2026-04-20 00:51 | 33.07524 | -117.74365 | 16043 ft | 385 kts | 316° |
| 2026-04-20 00:51 | 33.09577 | -117.76419 | 16793 ft | 386 kts | 320° |
| 2026-04-20 00:52 | 33.11679 | -117.78444 | 17437 ft | 390 kts | 320° |
| 2026-04-20 00:52 | 33.13785 | -117.80507 | 17997 ft | 394 kts | 319° |
| 2026-04-20 00:52 | 33.15894 | -117.82624 | 18600 ft | 398 kts | 318° |
| 2026-04-20 00:52 | 33.18007 | -117.84772 | 19221 ft | 400 kts | 317° |
| 2026-04-20 00:53 | 33.20110 | -117.86956 | 19831 ft | 402 kts | 315° |
| 2026-04-20 00:53 | 33.22133 | -117.89264 | 20452 ft | 403 kts | 313° |
| 2026-04-20 00:53 | 33.24121 | -117.91645 | 21047 ft | 406 kts | 313° |
| 2026-04-20 00:53 | 33.26105 | -117.94057 | 21616 ft | 408 kts | 312° |
| 2026-04-20 00:54 | 33.28079 | -117.96462 | 22153 ft | 411 kts | 312° |
| 2026-04-20 00:54 | 33.30107 | -117.98921 | 22685 ft | 413 kts | 312° |
| 2026-04-20 00:54 | 33.32141 | -118.01375 | 23209 ft | 416 kts | 313° |
| 2026-04-20 00:54 | 33.34185 | -118.03832 | 23747 ft | 418 kts | 313° |
| 2026-04-20 00:55 | 33.36241 | -118.06295 | 24252 ft | 420 kts | 313° |
| 2026-04-20 00:55 | 33.38313 | -118.08779 | 24739 ft | 423 kts | 313° |
| 2026-04-20 00:55 | 33.40396 | -118.11274 | 25233 ft | 425 kts | 313° |
| 2026-04-20 00:55 | 33.42489 | -118.13783 | 25710 ft | 427 kts | 313° |
| 2026-04-20 00:56 | 33.44592 | -118.16306 | 26159 ft | 429 kts | 313° |
| 2026-04-20 00:56 | 33.46704 | -118.18841 | 26584 ft | 431 kts | 313° |
| 2026-04-20 00:56 | 33.48830 | -118.21394 | 27022 ft | 434 kts | 313° |
| 2026-04-20 00:56 | 33.50963 | -118.23958 | 27448 ft | 436 kts | 313° |
| 2026-04-20 00:57 | 33.53105 | -118.26536 | 27872 ft | 437 kts | 313° |
| 2026-04-20 00:57 | 33.55256 | -118.29125 | 28276 ft | 439 kts | 313° |
| 2026-04-20 00:57 | 33.57416 | -118.31729 | 28671 ft | 441 kts | 313° |
| 2026-04-20 00:57 | 33.59584 | -118.34345 | 29062 ft | 443 kts | 313° |
| 2026-04-20 00:58 | 33.61757 | -118.36967 | 29451 ft | 445 kts | 313° |
| 2026-04-20 00:58 | 33.63944 | -118.39610 | 29812 ft | 446 kts | 313° |
| 2026-04-20 00:58 | 33.66135 | -118.42258 | 30154 ft | 448 kts | 313° |
| 2026-04-20 00:58 | 33.68337 | -118.44921 | 30514 ft | 450 kts | 313° |
| 2026-04-20 00:59 | 33.70536 | -118.47583 | 30992 ft | 448 kts | 313° |
| 2026-04-20 00:59 | 33.72718 | -118.50224 | 31507 ft | 444 kts | 313° |
| 2026-04-20 00:59 | 33.74896 | -118.52863 | 31954 ft | 443 kts | 313° |
| 2026-04-20 00:59 | 33.77060 | -118.55489 | 32328 ft | 443 kts | 312° |
| 2026-04-20 01:00 | 33.79194 | -118.58081 | 32715 ft | 441 kts | 312° |
| 2026-04-20 01:00 | 33.81349 | -118.60700 | 33123 ft | 440 kts | 312° |
| 2026-04-20 01:00 | 33.83496 | -118.63311 | 33525 ft | 438 kts | 312° |
| 2026-04-20 01:00 | 33.85635 | -118.65914 | 33867 ft | 437 kts | 312° |
| 2026-04-20 01:01 | 33.87768 | -118.68512 | 34230 ft | 436 kts | 312° |
| 2026-04-20 01:01 | 33.89897 | -118.71107 | 34564 ft | 435 kts | 312° |
| 2026-04-20 01:01 | 33.92020 | -118.73696 | 34862 ft | 435 kts | 311° |
| 2026-04-20 01:01 | 33.94143 | -118.76290 | 35120 ft | 435 kts | 311° |
| 2026-04-20 01:02 | 33.96269 | -118.78888 | 35372 ft | 435 kts | 311° |
| 2026-04-20 01:02 | 33.98393 | -118.81484 | 35666 ft | 434 kts | 311° |
| 2026-04-20 01:02 | 34.00508 | -118.84071 | 35969 ft | 433 kts | 311° |
| 2026-04-20 01:02 | 34.02620 | -118.86657 | 36199 ft | 433 kts | 311° |
| 2026-04-20 01:03 | 34.04735 | -118.89251 | 36380 ft | 435 kts | 311° |
| 2026-04-20 01:03 | 34.06858 | -118.91855 | 36621 ft | 435 kts | 311° |
| 2026-04-20 01:03 | 34.08975 | -118.94452 | 36924 ft | 433 kts | 310° |
| 2026-04-20 01:03 | 34.11076 | -118.97030 | 37272 ft | 429 kts | 310° |
| 2026-04-20 01:04 | 34.13161 | -118.99592 | 37629 ft | 426 kts | 310° |
| 2026-04-20 01:04 | 34.15110 | -119.02242 | 37910 ft | 419 kts | 301° |
| 2026-04-20 01:04 | 34.16701 | -119.05179 | 37947 ft | 420 kts | 297° |
| 2026-04-20 01:05 | 34.19702 | -119.11246 | 37953 ft | 420 kts | 297° |
| 2026-04-20 01:05 | 34.22708 | -119.17277 | 37959 ft | 418 kts | 297° |
| 2026-04-20 01:06 | 34.25748 | -119.23245 | 37960 ft | 416 kts | 298° |
| 2026-04-20 01:06 | 34.28793 | -119.29186 | 37972 ft | 415 kts | 298° |
| 2026-04-20 01:07 | 34.31830 | -119.35117 | 37954 ft | 414 kts | 298° |
| 2026-04-20 01:07 | 34.34854 | -119.41036 | 37964 ft | 413 kts | 297° |
| 2026-04-20 01:08 | 34.37873 | -119.46955 | 37980 ft | 414 kts | 297° |
| 2026-04-20 01:08 | 34.40928 | -119.52857 | 37970 ft | 416 kts | 302° |
| 2026-04-20 01:09 | 34.44865 | -119.58065 | 37975 ft | 422 kts | 310° |
| 2026-04-20 01:09 | 34.49025 | -119.63085 | 37963 ft | 422 kts | 310° |
| 2026-04-20 01:10 | 34.53173 | -119.68137 | 37961 ft | 423 kts | 310° |
| 2026-04-20 01:10 | 34.59382 | -119.75771 | 37965 ft | 424 kts | 310° |
| 2026-04-20 01:11 | 34.63520 | -119.80879 | 37980 ft | 424 kts | 310° |
| 2026-04-20 01:11 | 34.67626 | -119.85952 | 37959 ft | 425 kts | 310° |
| 2026-04-20 01:12 | 34.71759 | -119.91074 | 37966 ft | 425 kts | 310° |
| 2026-04-20 01:12 | 34.75898 | -119.96209 | 37959 ft | 424 kts | 310° |
| 2026-04-20 01:13 | 34.80021 | -120.01329 | 37954 ft | 423 kts | 310° |
| 2026-04-20 01:13 | 34.84131 | -120.06441 | 37953 ft | 422 kts | 310° |
| 2026-04-20 01:14 | 34.88223 | -120.11540 | 37957 ft | 420 kts | 310° |
| 2026-04-20 01:14 | 34.92303 | -120.16631 | 37966 ft | 419 kts | 310° |
| 2026-04-20 01:15 | 34.96370 | -120.21708 | 37962 ft | 418 kts | 310° |
| 2026-04-20 01:15 | 35.00418 | -120.26778 | 37960 ft | 417 kts | 310° |
| 2026-04-20 01:16 | 35.04454 | -120.31841 | 37962 ft | 416 kts | 309° |
| 2026-04-20 01:16 | 35.08485 | -120.36898 | 37952 ft | 415 kts | 310° |
| 2026-04-20 01:17 | 35.12681 | -120.41776 | 37963 ft | 417 kts | 313° |
| 2026-04-20 01:17 | 35.16993 | -120.46534 | 37949 ft | 418 kts | 313° |
| 2026-04-20 01:18 | 35.21287 | -120.51304 | 37979 ft | 416 kts | 313° |
| 2026-04-20 01:18 | 35.25549 | -120.56081 | 37981 ft | 416 kts | 313° |
| 2026-04-20 01:19 | 35.29818 | -120.60894 | 37972 ft | 418 kts | 313° |
| 2026-04-20 01:19 | 35.34099 | -120.65727 | 37963 ft | 419 kts | 313° |
| 2026-04-20 01:20 | 35.37661 | -120.69750 | 37959 ft | 419 kts | 313° |
| 2026-04-20 01:20 | 35.41957 | -120.74608 | 37970 ft | 421 kts | 313° |
| 2026-04-20 01:21 | 35.46254 | -120.79477 | 37968 ft | 420 kts | 313° |
| 2026-04-20 01:21 | 35.50703 | -120.84157 | 37986 ft | 423 kts | 317° |
| 2026-04-20 01:22 | 35.55425 | -120.88503 | 37978 ft | 424 kts | 318° |
| 2026-04-20 01:22 | 35.60148 | -120.92818 | 37965 ft | 422 kts | 318° |
| 2026-04-20 01:23 | 35.64837 | -120.97152 | 37975 ft | 421 kts | 317° |
| 2026-04-20 01:23 | 35.69492 | -121.01487 | 37961 ft | 419 kts | 317° |
| 2026-04-20 01:24 | 35.71831 | -121.03672 | 37574 ft | 423 kts | 317° |
| 2026-04-20 01:24 | 35.74161 | -121.05848 | 37175 ft | 420 kts | 317° |
| 2026-04-20 01:24 | 35.76484 | -121.08017 | 36718 ft | 415 kts | 317° |
| 2026-04-20 01:24 | 35.78739 | -121.10122 | 36273 ft | 410 kts | 318° |
| 2026-04-20 01:25 | 35.81033 | -121.12266 | 35813 ft | 406 kts | 317° |
| 2026-04-20 01:25 | 35.83267 | -121.14359 | 35338 ft | 403 kts | 317° |
| 2026-04-20 01:25 | 35.85489 | -121.16442 | 34867 ft | 399 kts | 317° |
| 2026-04-20 01:25 | 35.87664 | -121.18482 | 34411 ft | 396 kts | 318° |
| 2026-04-20 01:26 | 35.89845 | -121.20529 | 33956 ft | 393 kts | 318° |
| 2026-04-20 01:26 | 35.92009 | -121.22563 | 33492 ft | 390 kts | 317° |
| 2026-04-20 01:26 | 35.94157 | -121.24583 | 33032 ft | 387 kts | 318° |
| 2026-04-20 01:26 | 35.96295 | -121.26594 | 32586 ft | 385 kts | 318° |
| 2026-04-20 01:27 | 35.98413 | -121.28588 | 32141 ft | 382 kts | 318° |
| 2026-04-20 01:27 | 36.00521 | -121.30574 | 31694 ft | 380 kts | 318° |
| 2026-04-20 01:27 | 36.02617 | -121.32549 | 31252 ft | 378 kts | 318° |
| 2026-04-20 01:27 | 36.04700 | -121.34513 | 30799 ft | 376 kts | 318° |